South Newbury, New Hampshire
Current Conditions -  °F | °C
As of 9:51 PM on Wednesday 22 Oct 2014 (Local Time) from KCON Reporting Station
Overcast Overcast  
Wind Chill: 42°   Ceiling: 1300
Heat Index: 48°   Visibility: 10mi
Dew Point: 45°   Wind: 14mph
Humidity: 89%   Direction: 40°NE
Pressure: 29.96"   Gusts: 26mph
Location:  43.3°N, 72°W
Report Text: KCON 230151Z AUTO 04012G23KT 10SM OVC013 09/07 A2996 RMK AO2 RAB03E34 SLP148 P0000 T00890072
Loading
Personal Weather Stations






























Interactive Weather Map
Tropical Storm Tracking
New forecast layout! Learn more

10-Day Weather Forecast

Advertisements
Track Severe Weather on mobile